createdAt,value
2023-01-27T00:02:12.022Z,0.98
2023-01-27T00:04:35.711Z,0.97
2023-01-27T00:06:59.236Z,0.79
2023-01-27T00:09:22.851Z,1.04
2023-01-27T00:12:04.983Z,1.12
2023-01-27T00:14:28.646Z,1.14
2023-01-27T00:16:52.201Z,1.05
2023-01-27T00:19:19.788Z,1.09
2023-01-27T00:22:00.551Z,0.92
2023-01-27T00:24:39.573Z,0.83
2023-01-27T00:27:04.683Z,0.93
2023-01-27T00:29:28.335Z,0.99
2023-01-27T00:32:09.040Z,0.92
2023-01-27T00:34:32.691Z,0.85
2023-01-27T00:36:56.206Z,0.76
2023-01-27T00:39:19.783Z,0.81
2023-01-27T00:41:43.398Z,0.93
2023-01-27T00:44:12.803Z,0.93
2023-01-27T00:46:36.968Z,0.98
2023-01-27T00:49:00.592Z,0.94
2023-01-27T00:51:24.760Z,1.05
2023-01-27T00:53:49.199Z,1.06
2023-01-27T00:56:14.439Z,0.74
2023-01-27T00:58:39.462Z,1.05
2023-01-27T01:01:07.175Z,1.03
2023-01-27T01:03:32.272Z,0.87
2023-01-27T01:05:55.807Z,0.81
2023-01-27T01:08:19.388Z,0.62
2023-01-27T01:10:42.970Z,0.65
2023-01-27T01:13:08.024Z,0.60
2023-01-27T01:15:31.555Z,0.67
2023-01-27T01:17:56.484Z,0.77
2023-01-27T01:20:20.199Z,0.83
2023-01-27T01:22:43.801Z,0.86
2023-01-27T01:25:08.486Z,0.99
2023-01-27T01:27:32.031Z,0.95
2023-01-27T01:29:55.658Z,0.99
2023-01-27T01:32:19.511Z,1.15
2023-01-27T01:34:45.242Z,0.97
2023-01-27T01:37:08.818Z,1.00
2023-01-27T01:39:33.137Z,0.78
2023-01-27T01:41:56.702Z,1.09
2023-01-27T01:44:25.440Z,0.79
2023-01-27T01:46:49.014Z,1.00
2023-01-27T01:49:12.579Z,0.94
2023-01-27T01:51:43.379Z,0.70
2023-01-27T01:54:12.648Z,0.97
2023-01-27T01:56:40.919Z,0.89
2023-01-27T01:59:09.775Z,1.09
2023-01-27T02:01:33.461Z,0.97
2023-01-27T02:04:01.859Z,0.99
2023-01-27T02:06:25.544Z,0.90
2023-01-27T02:08:52.893Z,0.94
2023-01-27T02:11:16.918Z,1.03
2023-01-27T02:13:41.367Z,1.08
2023-01-27T02:16:05.996Z,0.97
2023-01-27T02:18:29.810Z,0.85
2023-01-27T02:20:55.329Z,0.87
2023-01-27T02:23:38.394Z,0.87
2023-01-27T02:26:10.760Z,1.09
2023-01-27T02:28:34.691Z,0.96
2023-01-27T02:30:58.679Z,0.99
2023-01-27T02:33:22.294Z,0.84
2023-01-27T02:35:53.512Z,1.08
2023-01-27T02:38:19.003Z,1.19
2023-01-27T02:40:43.503Z,1.22
2023-01-27T02:43:09.504Z,1.20
2023-01-27T02:45:33.322Z,1.05
2023-01-27T02:47:56.989Z,1.26
2023-01-27T02:50:20.492Z,1.13
2023-01-27T02:52:44.123Z,1.16
2023-01-27T02:55:10.818Z,0.96
2023-01-27T02:57:35.519Z,0.77
2023-01-27T03:00:26.449Z,1.09
2023-01-27T03:02:51.242Z,1.05
2023-01-27T03:05:15.879Z,1.03
2023-01-27T03:07:39.727Z,1.28
2023-01-27T03:10:03.262Z,1.20
2023-01-27T03:12:26.847Z,1.24
2023-01-27T03:15:09.688Z,1.19
2023-01-27T03:17:53.125Z,1.25
2023-01-27T03:20:17.012Z,1.32
2023-01-27T03:22:40.582Z,1.30
2023-01-27T03:25:05.883Z,1.05
2023-01-27T03:27:29.546Z,1.18
2023-01-27T03:30:20.774Z,1.18
2023-01-27T03:32:54.838Z,1.18
2023-01-27T03:35:49.196Z,1.07
2023-01-27T03:38:35.776Z,1.10
2023-01-27T03:41:16.594Z,1.33
2023-01-27T03:43:57.581Z,1.33
2023-01-27T03:46:22.409Z,1.15
2023-01-27T03:48:51.377Z,1.25
2023-01-27T03:51:14.932Z,1.13
2023-01-27T03:53:39.136Z,1.15
2023-01-27T03:56:02.837Z,1.21
2023-01-27T03:58:29.037Z,1.17
2023-01-27T04:00:55.879Z,1.24
2023-01-27T04:03:38.236Z,1.35
2023-01-27T04:06:24.596Z,1.43
2023-01-27T04:08:48.211Z,1.50
2023-01-27T04:11:31.690Z,1.50
2023-01-27T04:13:55.441Z,1.27
2023-01-27T04:16:19.852Z,1.32
2023-01-27T04:18:43.432Z,1.41
2023-01-27T04:21:08.647Z,1.49
2023-01-27T04:23:32.237Z,1.52
2023-01-27T04:25:56.644Z,1.53
2023-01-27T04:28:37.341Z,1.48
2023-01-27T04:31:03.880Z,1.44
2023-01-27T04:33:27.489Z,1.52
2023-01-27T04:35:51.162Z,1.37
2023-01-27T04:38:16.086Z,1.37
2023-01-27T04:40:39.834Z,1.52
2023-01-27T04:43:03.344Z,1.39
2023-01-27T04:45:26.937Z,1.51
2023-01-27T04:47:50.578Z,1.41
2023-01-27T04:50:14.108Z,1.61
2023-01-27T04:52:37.613Z,1.62
2023-01-27T04:55:02.567Z,1.56
2023-01-27T04:57:27.461Z,1.55
2023-01-27T04:59:51.122Z,1.44
2023-01-27T05:02:14.702Z,1.58
2023-01-27T05:04:38.455Z,1.47
2023-01-27T05:07:02.468Z,1.60
2023-01-27T05:09:26.323Z,1.40
2023-01-27T05:11:51.274Z,1.29
2023-01-27T05:14:15.030Z,1.13
2023-01-27T05:16:40.468Z,1.42
2023-01-27T05:19:04.031Z,1.31
2023-01-27T05:21:30.830Z,1.50
2023-01-27T05:23:54.607Z,1.14
2023-01-27T05:26:22.322Z,1.39
2023-01-27T05:28:49.427Z,1.50
2023-01-27T05:31:15.474Z,1.60
2023-01-27T05:33:39.247Z,1.58
2023-01-27T05:36:06.367Z,1.41
2023-01-27T05:38:30.968Z,0.93
2023-01-27T05:40:58.819Z,1.31
2023-01-27T05:43:22.384Z,1.43
2023-01-27T05:45:47.281Z,1.15
2023-01-27T05:48:10.829Z,1.49
2023-01-27T05:50:34.343Z,1.61
2023-01-27T05:52:57.934Z,1.65
2023-01-27T05:55:21.465Z,1.68
2023-01-27T05:57:45.206Z,1.57
2023-01-27T06:00:10.846Z,1.63
2023-01-27T06:02:35.851Z,1.66
2023-01-27T06:04:59.365Z,1.66
2023-01-27T06:07:22.965Z,1.68
2023-01-27T06:09:46.479Z,1.76
2023-01-27T06:12:10.035Z,1.54
2023-01-27T06:14:33.572Z,1.67
2023-01-27T06:16:57.119Z,1.80
2023-01-27T06:19:22.263Z,1.49
2023-01-27T06:21:45.921Z,1.57
2023-01-27T06:24:11.293Z,1.70
2023-01-27T06:26:36.191Z,1.71
2023-01-27T06:28:59.854Z,1.69
2023-01-27T06:31:23.592Z,1.75
2023-01-27T06:33:47.363Z,1.75
2023-01-27T06:36:15.670Z,1.68
2023-01-27T06:38:39.642Z,1.72
2023-01-27T06:41:03.508Z,1.64
2023-01-27T06:43:27.179Z,1.71
2023-01-27T06:45:51.682Z,1.43
2023-01-27T06:48:15.179Z,1.74
2023-01-27T06:50:38.815Z,1.81
2023-01-27T06:53:06.207Z,1.72
2023-01-27T06:55:30.218Z,1.70
2023-01-27T06:57:53.727Z,1.85
2023-01-27T07:00:19.053Z,1.80
2023-01-27T07:02:42.574Z,1.82
2023-01-27T07:05:06.829Z,1.80
2023-01-27T07:07:30.335Z,1.77
2023-01-27T07:09:55.257Z,1.74
2023-01-27T07:12:18.770Z,1.91
2023-01-27T07:14:42.358Z,1.60
2023-01-27T07:17:05.879Z,1.81
2023-01-27T07:19:29.496Z,1.51
2023-01-27T07:21:52.974Z,1.88
2023-01-27T07:24:16.551Z,1.58
2023-01-27T07:26:41.677Z,1.70
2023-01-27T07:29:05.567Z,1.85
2023-01-27T07:31:29.278Z,1.59
2023-01-27T07:33:54.433Z,1.66
2023-01-27T07:36:17.987Z,1.58
2023-01-27T07:38:41.676Z,1.66
2023-01-27T07:41:06.154Z,1.74
2023-01-27T07:43:31.081Z,1.89
2023-01-27T07:45:57.010Z,1.75
2023-01-27T07:48:20.668Z,1.92
2023-01-27T07:50:44.187Z,1.98
2023-01-27T07:53:07.801Z,2.01
2023-01-27T07:55:31.889Z,2.16
2023-01-27T07:57:56.057Z,2.11
2023-01-27T08:00:22.841Z,2.19
2023-01-27T08:02:46.382Z,2.07
2023-01-27T08:05:10.746Z,2.23
2023-01-27T08:07:34.521Z,2.27
2023-01-27T08:09:58.071Z,2.21
2023-01-27T08:12:21.622Z,2.30
2023-01-27T08:14:45.112Z,2.57
2023-01-27T08:17:10.181Z,2.39
2023-01-27T08:19:33.713Z,2.52
2023-01-27T08:21:57.550Z,2.75
2023-01-27T08:24:21.178Z,2.45
2023-01-27T08:26:44.813Z,2.71
2023-01-27T08:29:08.379Z,2.37
2023-01-27T08:31:31.987Z,2.69
2023-01-27T08:33:56.898Z,2.63
2023-01-27T08:36:21.784Z,2.56
2023-01-27T08:38:46.648Z,2.74
2023-01-27T08:41:13.348Z,2.73
2023-01-27T08:43:37.278Z,2.69
2023-01-27T08:46:01.362Z,2.75
2023-01-27T08:48:24.883Z,2.83
2023-01-27T08:50:51.260Z,2.91
2023-01-27T08:53:14.883Z,2.99
2023-01-27T08:55:38.438Z,2.84
2023-01-27T08:58:02.143Z,2.97
2023-01-27T09:00:26.671Z,2.84
2023-01-27T09:02:51.510Z,2.90
2023-01-27T09:05:16.059Z,2.94
2023-01-27T09:07:41.258Z,2.89
2023-01-27T09:10:20.067Z,2.98
2023-01-27T09:12:44.782Z,2.96
2023-01-27T09:15:09.915Z,2.96
2023-01-27T09:17:33.458Z,2.92
2023-01-27T09:19:56.970Z,3.08
2023-01-27T09:22:20.620Z,3.06
2023-01-27T09:24:45.604Z,3.11
2023-01-27T09:27:09.183Z,2.97
2023-01-27T09:29:32.686Z,3.09
2023-01-27T09:31:56.304Z,3.12
2023-01-27T09:34:20.513Z,3.11
2023-01-27T09:36:50.076Z,3.09
2023-01-27T09:39:14.333Z,3.24
2023-01-27T09:42:21.339Z,3.14
2023-01-27T09:45:22.264Z,3.07
2023-01-27T09:48:14.091Z,3.24
2023-01-27T09:50:48.117Z,3.07
2023-01-27T09:53:57.357Z,3.20
2023-01-27T09:56:35.073Z,3.11
2023-01-27T09:59:13.587Z,3.23
2023-01-27T10:01:57.074Z,3.24
2023-01-27T10:04:57.054Z,3.36
2023-01-27T10:08:06.619Z,3.19
2023-01-27T10:10:53.562Z,3.39
2023-01-27T10:13:31.250Z,3.39
2023-01-27T10:16:20.315Z,3.14
2023-01-27T10:19:19.363Z,3.30
2023-01-27T10:21:52.902Z,3.41
2023-01-27T10:24:34.199Z,3.30
2023-01-27T10:27:04.287Z,3.23
2023-01-27T10:29:36.390Z,3.14
2023-01-27T10:32:09.565Z,3.48
2023-01-27T10:34:38.389Z,3.69
2023-01-27T10:37:16.436Z,3.32
2023-01-27T10:39:47.091Z,3.58
2023-01-27T10:42:24.231Z,3.30
2023-01-27T10:45:07.750Z,3.33
2023-01-27T10:47:48.905Z,3.39
2023-01-27T10:50:16.939Z,3.30
2023-01-27T10:52:46.550Z,3.37
2023-01-27T10:55:21.856Z,3.19
2023-01-27T10:57:51.528Z,3.25
2023-01-27T11:00:57.866Z,3.53
2023-01-27T11:03:10.662Z,3.53
2023-01-27T11:05:39.165Z,3.56
2023-01-27T11:08:08.725Z,3.61
2023-01-27T11:10:37.726Z,3.76
2023-01-27T11:13:02.914Z,3.76
2023-01-27T11:15:31.523Z,3.64
2023-01-27T11:18:05.406Z,3.75
2023-01-27T11:20:35.170Z,3.75
2023-01-27T11:23:05.339Z,3.79
2023-01-27T11:25:46.200Z,4.06
2023-01-27T11:28:24.972Z,3.61
2023-01-27T11:30:57.330Z,3.58
2023-01-27T11:33:29.918Z,3.64
2023-01-27T11:35:54.787Z,3.47
2023-01-27T11:38:22.849Z,3.47
2023-01-27T11:40:48.413Z,3.64
2023-01-27T11:43:16.100Z,3.58
2023-01-27T11:45:39.806Z,3.70
2023-01-27T11:48:07.452Z,3.71
2023-01-27T11:50:35.748Z,3.76
2023-01-27T11:53:11.117Z,3.78
2023-01-27T11:55:39.833Z,3.87
2023-01-27T11:58:17.400Z,3.88
2023-01-27T12:00:46.998Z,3.68
2023-01-27T12:03:21.320Z,3.52
2023-01-27T12:05:51.408Z,3.83
2023-01-27T12:08:42.619Z,3.61
2023-01-27T12:11:24.114Z,3.37
2023-01-27T12:13:53.637Z,3.56
2023-01-27T12:16:17.690Z,3.43
2023-01-27T12:18:53.756Z,3.32
2023-01-27T12:21:19.947Z,3.61
2023-01-27T12:23:51.500Z,3.62
2023-01-27T12:26:15.242Z,3.46
2023-01-27T12:28:43.636Z,3.37
2023-01-27T12:31:11.670Z,3.75
2023-01-27T12:33:39.054Z,3.63
2023-01-27T12:36:08.565Z,3.77
2023-01-27T12:38:37.574Z,3.81
2023-01-27T12:41:04.499Z,3.50
2023-01-27T12:43:28.046Z,3.47
2023-01-27T12:46:19.554Z,3.40
2023-01-27T12:48:50.751Z,3.38
2023-01-27T12:51:18.840Z,3.56
2023-01-27T12:53:44.481Z,3.59
2023-01-27T12:56:14.895Z,3.86
2023-01-27T12:58:41.523Z,3.61
2023-01-27T13:01:09.141Z,3.49
2023-01-27T13:03:33.932Z,3.62
2023-01-27T13:06:00.488Z,3.34
2023-01-27T13:08:27.355Z,3.35
2023-01-27T13:10:54.863Z,3.50
2023-01-27T13:13:24.564Z,3.65
2023-01-27T13:15:55.195Z,3.49
2023-01-27T13:18:22.114Z,3.60
2023-01-27T13:20:50.879Z,3.17
2023-01-27T13:23:20.934Z,3.33
2023-01-27T13:25:50.974Z,3.30
2023-01-27T13:28:23.249Z,3.59
2023-01-27T13:30:52.698Z,3.44
2023-01-27T13:33:28.294Z,3.44
2023-01-27T13:36:01.214Z,3.59
2023-01-27T13:38:32.696Z,3.69
2023-01-27T13:40:56.531Z,3.71
2023-01-27T13:43:27.148Z,3.89
2023-01-27T13:45:56.603Z,3.88
2023-01-27T13:48:26.135Z,3.76
2023-01-27T13:50:54.736Z,3.76
2023-01-27T13:53:20.844Z,3.95
2023-01-27T13:56:01.196Z,3.75
2023-01-27T13:58:40.054Z,4.09
2023-01-27T14:01:16.565Z,3.86
2023-01-27T14:04:22.357Z,3.74
2023-01-27T14:07:01.413Z,4.08
2023-01-27T14:09:45.667Z,3.83
2023-01-27T14:12:21.920Z,4.12
2023-01-27T14:14:58.985Z,4.26
2023-01-27T14:17:36.913Z,4.26
2023-01-27T14:20:25.967Z,3.95
2023-01-27T14:23:03.602Z,4.15
2023-01-27T14:25:38.159Z,3.68
2023-01-27T14:28:13.542Z,3.85
2023-01-27T14:30:42.930Z,4.10
2023-01-27T14:33:16.120Z,3.96
2023-01-27T14:35:46.891Z,3.53
2023-01-27T14:38:23.744Z,3.78
2023-01-27T14:41:08.962Z,3.80
2023-01-27T14:43:44.684Z,3.54
2023-01-27T14:46:21.227Z,3.63
2023-01-27T14:48:58.884Z,3.99
2023-01-27T14:51:35.115Z,3.80
2023-01-27T14:54:18.306Z,3.71
2023-01-27T14:56:47.361Z,3.73
2023-01-27T14:59:27.470Z,3.68
2023-01-27T15:01:57.984Z,3.93
2023-01-27T15:04:37.474Z,3.78
2023-01-27T15:07:09.860Z,3.81
2023-01-27T15:10:00.236Z,3.92
2023-01-27T15:13:07.398Z,4.08
2023-01-27T15:16:17.218Z,3.87
2023-01-27T15:19:07.878Z,3.71
2023-01-27T15:22:07.291Z,3.90
2023-01-27T15:24:58.265Z,3.89
2023-01-27T15:27:23.285Z,3.79
2023-01-27T15:29:48.032Z,3.82
2023-01-27T15:32:24.050Z,3.76
2023-01-27T15:34:54.935Z,3.91
2023-01-27T15:37:25.307Z,3.63
2023-01-27T15:40:06.550Z,3.97
2023-01-27T15:42:52.486Z,4.06
2023-01-27T15:45:30.532Z,3.97
2023-01-27T15:48:01.100Z,3.89
2023-01-27T15:50:31.609Z,3.86
2023-01-27T15:53:05.193Z,3.88
2023-01-27T15:55:32.733Z,3.86
2023-01-27T15:58:07.852Z,3.57
2023-01-27T16:00:35.855Z,3.78
2023-01-27T16:03:03.575Z,3.60
2023-01-27T16:05:32.208Z,3.62
2023-01-27T16:08:00.807Z,3.70
2023-01-27T16:10:26.046Z,3.67
2023-01-27T16:12:49.967Z,3.78
2023-01-27T16:15:33.816Z,3.54
2023-01-27T16:18:02.282Z,3.50
2023-01-27T16:20:29.779Z,3.69
2023-01-27T16:22:59.769Z,3.84
2023-01-27T16:25:32.074Z,3.87
2023-01-27T16:28:03.186Z,3.41
2023-01-27T16:30:29.725Z,3.59
2023-01-27T16:33:06.139Z,3.46
2023-01-27T16:35:37.944Z,3.47
2023-01-27T16:38:06.666Z,3.30
2023-01-27T16:40:32.019Z,2.94
2023-01-27T16:43:00.651Z,3.18
2023-01-27T16:45:28.299Z,3.12
2023-01-27T16:47:56.458Z,3.15
2023-01-27T16:50:39.955Z,3.08
2023-01-27T16:53:05.699Z,2.99
2023-01-27T16:55:29.301Z,2.77
2023-01-27T16:57:55.898Z,2.69
2023-01-27T17:00:23.254Z,2.54
2023-01-27T17:02:47.476Z,2.82
2023-01-27T17:05:17.946Z,2.63
2023-01-27T17:07:43.085Z,2.69
2023-01-27T17:10:29.044Z,2.62
2023-01-27T17:12:57.463Z,2.63
2023-01-27T17:15:26.081Z,2.66
2023-01-27T17:17:51.950Z,2.62
2023-01-27T17:20:25.504Z,2.61
2023-01-27T17:22:54.237Z,2.47
2023-01-27T17:25:26.431Z,2.41
2023-01-27T17:27:50.103Z,2.45
2023-01-27T17:30:19.335Z,2.36
2023-01-27T17:32:47.504Z,2.27
2023-01-27T17:35:24.366Z,2.16
2023-01-27T17:37:49.464Z,2.18
2023-01-27T17:40:18.073Z,2.22
2023-01-27T17:42:42.365Z,2.15
2023-01-27T17:45:25.628Z,2.10
2023-01-27T17:47:49.440Z,1.98
2023-01-27T17:50:17.275Z,1.95
2023-01-27T17:52:52.113Z,1.95
2023-01-27T17:55:23.131Z,1.76
2023-01-27T17:57:48.367Z,1.73
2023-01-27T18:00:22.931Z,1.68
2023-01-27T18:02:54.255Z,1.59
2023-01-27T18:05:24.650Z,1.53
2023-01-27T18:07:48.708Z,1.49
2023-01-27T18:10:28.687Z,1.26
2023-01-27T18:12:52.394Z,1.34
2023-01-27T18:15:39.474Z,1.24
2023-01-27T18:18:05.021Z,1.16
2023-01-27T18:20:30.121Z,1.02
2023-01-27T18:22:53.770Z,1.11
2023-01-27T18:25:19.121Z,1.06
2023-01-27T18:27:46.075Z,1.03
2023-01-27T18:30:19.143Z,0.91
2023-01-27T18:32:46.035Z,1.04
2023-01-27T18:35:28.435Z,1.01
2023-01-27T18:37:59.894Z,1.00
2023-01-27T18:40:29.514Z,0.97
2023-01-27T18:42:55.941Z,0.94
2023-01-27T18:45:20.136Z,0.61
2023-01-27T18:47:43.660Z,0.77
2023-01-27T18:50:19.448Z,0.82
2023-01-27T18:52:43.551Z,0.64
2023-01-27T18:55:17.032Z,0.73
2023-01-27T18:57:40.822Z,0.82
2023-01-27T19:00:07.568Z,0.71
2023-01-27T19:02:31.495Z,0.63
2023-01-27T19:04:55.070Z,0.58
2023-01-27T19:07:20.064Z,0.59
2023-01-27T19:09:44.217Z,0.70
2023-01-27T19:12:08.231Z,0.82
2023-01-27T19:14:31.780Z,0.70
2023-01-27T19:16:56.733Z,0.85
2023-01-27T19:19:20.388Z,0.79
2023-01-27T19:21:44.036Z,0.83
2023-01-27T19:24:11.360Z,0.82
2023-01-27T19:26:34.925Z,0.94
2023-01-27T19:28:59.589Z,1.00
2023-01-27T19:31:23.694Z,0.97
2023-01-27T19:33:48.649Z,0.75
2023-01-27T19:36:26.769Z,0.85
2023-01-27T19:38:54.560Z,1.03
2023-01-27T19:41:18.078Z,0.99
2023-01-27T19:43:42.011Z,0.99
2023-01-27T19:46:13.939Z,0.96
2023-01-27T19:48:37.479Z,0.93
2023-01-27T19:51:02.394Z,1.33
2023-01-27T19:53:26.062Z,0.96
2023-01-27T19:55:50.413Z,0.86
2023-01-27T19:58:23.040Z,0.98
2023-01-27T20:00:46.629Z,1.14
2023-01-27T20:03:10.854Z,1.00
2023-01-27T20:05:35.601Z,0.84
2023-01-27T20:08:01.677Z,1.05
2023-01-27T20:10:27.315Z,0.83
2023-01-27T20:12:56.693Z,1.05
2023-01-27T20:15:22.628Z,0.97
2023-01-27T20:17:46.160Z,0.84
2023-01-27T20:20:11.749Z,1.05
2023-01-27T20:22:36.662Z,1.03
2023-01-27T20:25:02.417Z,0.99
2023-01-27T20:27:25.954Z,1.04
2023-01-27T20:29:49.644Z,1.15
2023-01-27T20:32:13.513Z,1.01
2023-01-27T20:34:38.831Z,1.01
2023-01-27T20:37:02.536Z,0.92
2023-01-27T20:39:26.086Z,0.97
2023-01-27T20:41:52.919Z,0.87
2023-01-27T20:44:16.520Z,0.92
2023-01-27T20:46:40.041Z,0.86
2023-01-27T20:49:03.828Z,0.72
2023-01-27T20:51:27.524Z,0.96
2023-01-27T20:53:51.098Z,0.83
2023-01-27T20:56:17.045Z,1.00
2023-01-27T20:58:42.028Z,0.95
2023-01-27T21:01:08.338Z,0.85
2023-01-27T21:03:32.069Z,0.96
2023-01-27T21:05:55.572Z,0.87
2023-01-27T21:08:19.150Z,0.91
2023-01-27T21:10:42.745Z,0.99
2023-01-27T21:13:06.538Z,1.00
2023-01-27T21:15:31.935Z,0.84
2023-01-27T21:17:55.926Z,0.99
2023-01-27T21:20:19.692Z,0.73
2023-01-27T21:22:45.952Z,0.94
2023-01-27T21:25:10.494Z,0.99
2023-01-27T21:27:34.502Z,0.79
2023-01-27T21:29:58.806Z,0.90
2023-01-27T21:32:23.821Z,1.02
2023-01-27T21:34:47.289Z,0.71
2023-01-27T21:37:10.843Z,0.99
2023-01-27T21:39:34.416Z,0.88
2023-01-27T21:42:15.210Z,0.78
2023-01-27T21:44:56.413Z,0.98
2023-01-27T21:47:21.063Z,0.81
2023-01-27T21:50:04.370Z,0.96
2023-01-27T21:52:34.214Z,0.85
2023-01-27T21:54:57.761Z,0.91
2023-01-27T21:57:21.327Z,1.06
2023-01-27T21:59:44.927Z,1.01
2023-01-27T22:02:12.481Z,0.62
2023-01-27T22:04:36.109Z,0.83
2023-01-27T22:07:00.999Z,0.87
2023-01-27T22:09:24.547Z,0.93
2023-01-27T22:11:48.075Z,0.76
2023-01-27T22:14:11.648Z,0.78
2023-01-27T22:16:35.170Z,0.62
2023-01-27T22:18:58.776Z,0.76
2023-01-27T22:21:22.351Z,0.57
2023-01-27T22:23:47.924Z,0.56
2023-01-27T22:26:11.534Z,0.58
2023-01-27T22:28:35.117Z,0.57
2023-01-27T22:31:02.837Z,0.31
2023-01-27T22:33:26.488Z,0.33
2023-01-27T22:35:50.009Z,0.34
2023-01-27T22:38:13.658Z,0.33
2023-01-27T22:40:38.723Z,0.34
2023-01-27T22:43:09.113Z,0.17
2023-01-27T22:45:32.874Z,0.25
2023-01-27T22:47:56.403Z,0.13
2023-01-27T22:50:20.952Z,0.11
2023-01-27T22:52:44.497Z,0.09
2023-01-27T22:55:10.826Z,0.06
2023-01-27T22:57:36.085Z,0.19
2023-01-27T23:00:00.261Z,-0.03
2023-01-27T23:02:26.507Z,0.07
2023-01-27T23:04:50.101Z,-0.01
2023-01-27T23:07:13.640Z,-0.20
2023-01-27T23:09:37.248Z,0.00
2023-01-27T23:12:00.762Z,0.05
2023-01-27T23:14:25.757Z,-0.12
2023-01-27T23:16:52.878Z,-0.18
2023-01-27T23:19:16.561Z,-0.15
2023-01-27T23:21:40.217Z,-0.27
2023-01-27T23:24:05.335Z,-0.23
2023-01-27T23:26:30.353Z,-0.25
2023-01-27T23:28:53.923Z,-0.32
2023-01-27T23:31:19.024Z,-0.55
2023-01-27T23:33:44.345Z,-0.43
2023-01-27T23:36:10.176Z,-0.50
2023-01-27T23:38:34.099Z,-0.45
2023-01-27T23:41:02.944Z,-0.57
2023-01-27T23:43:26.517Z,-0.56
2023-01-27T23:45:53.476Z,-0.66
2023-01-27T23:48:18.483Z,-0.66
2023-01-27T23:50:41.992Z,-0.67
2023-01-27T23:53:05.788Z,-0.68
2023-01-27T23:55:29.335Z,-0.78
2023-01-27T23:57:52.917Z,-0.83
